createdAt,value
2018-03-21T00:00:18.305Z,58.51
2018-03-21T00:00:44.458Z,58.61
2018-03-21T00:01:10.593Z,58.8
2018-03-21T00:01:36.736Z,58.51
2018-03-21T00:02:02.870Z,58.8
2018-03-21T00:02:28.996Z,58.8
2018-03-21T00:02:55.130Z,58.99
2018-03-21T00:03:21.272Z,58.99
2018-03-21T00:03:47.408Z,58.8
2018-03-21T00:04:13.538Z,59.08
2018-03-21T00:04:39.675Z,58.89
2018-03-21T00:05:05.815Z,59.15
2018-03-21T00:05:31.960Z,59.05
2018-03-21T00:05:58.124Z,59.18
2018-03-21T00:06:24.261Z,59.05
2018-03-21T00:06:50.397Z,59.08
2018-03-21T00:07:16.529Z,59.37
2018-03-21T00:07:42.663Z,59.46
2018-03-21T00:08:08.810Z,59.66
2018-03-21T00:08:34.955Z,59.84
2018-03-21T00:09:01.095Z,59.56
2018-03-21T00:09:27.232Z,59.66
2018-03-21T00:09:53.369Z,59.63
2018-03-21T00:10:19.504Z,59.63
2018-03-21T00:10:45.660Z,59.53
2018-03-21T00:11:11.803Z,59.72
2018-03-21T00:11:37.940Z,59.25
2018-03-21T00:12:04.100Z,59.37
2018-03-21T00:12:30.290Z,59.37
2018-03-21T00:12:56.390Z,59.34
2018-03-21T00:13:22.529Z,59.63
2018-03-21T00:13:48.685Z,59.18
2018-03-21T00:14:14.882Z,59.27
2018-03-21T00:14:41.025Z,59.34
2018-03-21T00:15:07.154Z,59.63
2018-03-21T00:15:33.294Z,59.81
2018-03-21T00:15:59.425Z,59.63
2018-03-21T00:16:25.563Z,59.53
2018-03-21T00:16:51.699Z,59.34
2018-03-21T00:17:17.877Z,59.53
2018-03-21T00:17:44.012Z,59.63
2018-03-21T00:18:10.144Z,59.81
2018-03-21T00:18:36.307Z,59.72
2018-03-21T00:19:02.487Z,59.63
2018-03-21T00:19:28.590Z,59.81
2018-03-21T00:19:54.739Z,59.63
2018-03-21T00:20:20.875Z,60.28
2018-03-21T00:20:47.008Z,60.19
2018-03-21T00:21:13.143Z,60.19
2018-03-21T00:21:39.271Z,60.28
2018-03-21T00:22:05.409Z,60.47
2018-03-21T00:22:31.557Z,60.28
2018-03-21T00:22:57.692Z,60.28
2018-03-21T00:23:23.829Z,60.38
2018-03-21T00:23:49.968Z,60.28
2018-03-21T00:24:16.102Z,60.67
2018-03-21T00:24:42.235Z,60.67
2018-03-21T00:25:08.401Z,61.24
2018-03-21T00:25:34.595Z,61.14
2018-03-21T00:26:00.725Z,61.14
2018-03-21T00:26:26.856Z,60.47
2018-03-21T00:26:53.019Z,60.57
2018-03-21T00:27:19.180Z,61.33
2018-03-21T00:27:45.307Z,61.14
2018-03-21T00:28:11.445Z,61.52
2018-03-21T00:28:37.600Z,61.52
2018-03-21T00:29:03.737Z,61.71
2018-03-21T00:29:29.893Z,61.14
2018-03-21T00:29:56.037Z,61.14
2018-03-21T00:30:22.169Z,61.43
2018-03-21T00:30:48.303Z,61.05
2018-03-21T00:31:14.439Z,61.52
2018-03-21T00:31:40.579Z,61.52
2018-03-21T00:32:06.723Z,61.61
2018-03-21T00:32:32.855Z,61.52
2018-03-21T00:32:58.989Z,61.9
2018-03-21T00:33:25.127Z,61.71
2018-03-21T00:33:51.259Z,61.43
2018-03-21T00:34:17.398Z,61.52
2018-03-21T00:34:43.580Z,61.14
2018-03-21T00:35:09.743Z,61.61
2018-03-21T00:35:35.876Z,61.71
2018-03-21T00:36:02.020Z,61.43
2018-03-21T00:36:28.152Z,61.9
2018-03-21T00:36:54.310Z,61.8
2018-03-21T00:37:20.449Z,61.71
2018-03-21T00:37:46.575Z,61.71
2018-03-21T00:38:12.739Z,61.9
2018-03-21T00:38:38.877Z,61.43
2018-03-21T00:39:05.008Z,61.52
2018-03-21T00:39:31.170Z,61.61
2018-03-21T00:39:57.303Z,61.43
2018-03-21T00:40:23.440Z,61.52
2018-03-21T00:40:49.575Z,61.52
2018-03-21T00:41:15.715Z,61.52
2018-03-21T00:41:41.849Z,62.18
2018-03-21T00:42:07.976Z,62.18
2018-03-21T00:42:34.113Z,62.37
2018-03-21T00:43:00.253Z,62.56
2018-03-21T00:43:26.392Z,62.37
2018-03-21T00:43:52.581Z,62.18
2018-03-21T00:44:18.660Z,62.75
2018-03-21T00:44:44.788Z,62.66
2018-03-21T00:45:10.926Z,63.04
2018-03-21T00:45:37.082Z,62.66
2018-03-21T00:46:03.221Z,62.66
2018-03-21T00:46:29.356Z,62.66
2018-03-21T00:46:55.519Z,62.56
2018-03-21T00:47:21.668Z,63.42
2018-03-21T00:47:47.807Z,63.23
2018-03-21T00:48:13.940Z,63.13
2018-03-21T00:48:40.082Z,62.66
2018-03-21T00:49:06.211Z,62.56
2018-03-21T00:49:32.354Z,63.42
2018-03-21T00:49:58.492Z,63.42
2018-03-21T00:50:24.627Z,63.23
2018-03-21T00:50:50.767Z,63.32
2018-03-21T00:51:16.931Z,63.32
2018-03-21T00:51:43.066Z,63.42
2018-03-21T00:52:09.202Z,63.42
2018-03-21T00:52:35.342Z,62.47
2018-03-21T00:53:01.486Z,63.13
2018-03-21T00:53:27.614Z,63.13
2018-03-21T00:53:53.743Z,62.85
2018-03-21T00:54:19.884Z,63.13
2018-03-21T00:54:46.015Z,63.23
2018-03-21T00:55:12.173Z,63.13
2018-03-21T00:55:38.308Z,62.75
2018-03-21T00:56:04.441Z,63.42
2018-03-21T00:56:30.577Z,63.32
2018-03-21T00:56:56.715Z,63.51
2018-03-21T00:57:22.853Z,63.42
2018-03-21T00:57:48.990Z,63.23
2018-03-21T00:58:15.151Z,63.32
2018-03-21T00:58:41.261Z,63.42
2018-03-21T00:59:07.392Z,63.89
2018-03-21T00:59:33.523Z,63.7
2018-03-21T00:59:59.662Z,63.98
2018-03-21T01:00:25.801Z,64.36
2018-03-21T01:00:51.943Z,63.98
2018-03-21T01:01:18.072Z,64.46
2018-03-21T01:01:44.207Z,63.98
2018-03-21T01:02:10.340Z,64.17
2018-03-21T01:02:36.480Z,64.27
2018-03-21T01:03:02.635Z,64.27
2018-03-21T01:03:28.770Z,64.08
2018-03-21T01:03:54.905Z,64.08
2018-03-21T01:04:21.041Z,64.27
2018-03-21T01:04:47.206Z,64.27
2018-03-21T01:05:13.337Z,64.84
2018-03-21T01:05:39.494Z,64.65
2018-03-21T01:06:05.635Z,64.74
2018-03-21T01:06:31.795Z,64.93
2018-03-21T01:06:57.924Z,64.74
2018-03-21T01:07:24.060Z,64.55
2018-03-21T01:07:50.220Z,64.84
2018-03-21T01:08:16.355Z,64.84
2018-03-21T01:08:42.492Z,64.93
2018-03-21T01:09:08.630Z,64.74
2018-03-21T01:09:34.764Z,64.65
2018-03-21T01:10:00.897Z,65.31
2018-03-21T01:10:27.032Z,65.31
2018-03-21T01:10:53.169Z,65.03
2018-03-21T01:11:19.304Z,64.93
2018-03-21T01:11:45.436Z,65.22
2018-03-21T01:12:11.568Z,64.84
2018-03-21T01:12:37.702Z,65.12
2018-03-21T01:13:03.841Z,64.93
2018-03-21T01:13:29.982Z,64.84
2018-03-21T01:13:56.107Z,65.03
2018-03-21T01:14:22.250Z,64.93
2018-03-21T01:14:48.383Z,65.31
2018-03-21T01:15:14.517Z,65.22
2018-03-21T01:15:40.644Z,65.41
2018-03-21T01:16:06.787Z,65.69
2018-03-21T01:16:32.912Z,65.59
2018-03-21T01:16:59.045Z,65.69
2018-03-21T01:17:25.207Z,65.12
2018-03-21T01:17:51.334Z,65.31
2018-03-21T01:18:17.477Z,65.59
2018-03-21T01:18:43.611Z,65.69
2018-03-21T01:19:09.743Z,65.59
2018-03-21T01:19:35.875Z,65.69
2018-03-21T01:20:02.012Z,65.69
2018-03-21T01:20:28.142Z,65.88
2018-03-21T01:20:54.280Z,65.41
2018-03-21T01:21:20.421Z,65.69
2018-03-21T01:21:46.579Z,65.59
2018-03-21T01:22:12.709Z,65.5
2018-03-21T01:22:38.853Z,65.41
2018-03-21T01:23:04.988Z,65.41
2018-03-21T01:23:31.150Z,65.22
2018-03-21T01:23:57.279Z,65.12
2018-03-21T01:24:23.418Z,65.31
2018-03-21T01:24:49.560Z,65.41
2018-03-21T01:25:15.689Z,65.41
2018-03-21T01:25:41.854Z,65.5
2018-03-21T01:26:07.988Z,65.69
2018-03-21T01:26:34.127Z,65.41
2018-03-21T01:27:00.307Z,65.03
2018-03-21T01:27:26.445Z,65.78
2018-03-21T01:27:52.580Z,65.22
2018-03-21T01:28:18.748Z,65.69
2018-03-21T01:28:44.885Z,66.16
2018-03-21T01:29:11.016Z,65.88
2018-03-21T01:29:37.145Z,65.5
2018-03-21T01:30:03.281Z,65.69
2018-03-21T01:30:29.418Z,65.12
2018-03-21T01:30:55.555Z,65.5
2018-03-21T01:31:21.698Z,65.97
2018-03-21T01:31:47.821Z,66.07
2018-03-21T01:32:13.966Z,66.07
2018-03-21T01:32:40.099Z,66.07
2018-03-21T01:33:06.264Z,66.07
2018-03-21T01:33:32.419Z,66.07
2018-03-21T01:33:58.557Z,66.45
2018-03-21T01:34:24.688Z,66.74
2018-03-21T01:34:50.831Z,66.74
2018-03-21T01:35:16.985Z,66.93
2018-03-21T01:35:43.120Z,66.35
2018-03-21T01:36:09.264Z,66.45
2018-03-21T01:36:35.415Z,66.45
2018-03-21T01:37:01.556Z,65.88
2018-03-21T01:37:27.688Z,65.97
2018-03-21T01:37:53.819Z,66.07
2018-03-21T01:38:19.961Z,65.69
2018-03-21T01:38:46.112Z,66.54
2018-03-21T01:39:12.248Z,66.45
2018-03-21T01:39:38.379Z,66.64
2018-03-21T01:40:04.515Z,66.45
2018-03-21T01:40:30.653Z,66.07
2018-03-21T01:40:56.835Z,66.07
2018-03-21T01:41:22.967Z,65.97
2018-03-21T01:41:49.128Z,65.88
2018-03-21T01:42:15.264Z,66.83
2018-03-21T01:42:41.399Z,66.64
2018-03-21T01:43:07.537Z,66.83
2018-03-21T01:43:33.667Z,66.54
2018-03-21T01:43:59.829Z,66.45
2018-03-21T01:44:25.990Z,66.35
2018-03-21T01:44:52.142Z,66.54
2018-03-21T01:45:18.278Z,66.45
2018-03-21T01:45:44.432Z,66.74
2018-03-21T01:46:10.576Z,66.93
2018-03-21T01:46:36.707Z,66.93
2018-03-21T01:47:02.880Z,66.74
2018-03-21T01:47:28.968Z,66.64
2018-03-21T01:47:55.104Z,66.45
2018-03-21T01:48:21.261Z,66.83
2018-03-21T01:48:47.402Z,66.54
2018-03-21T01:49:13.533Z,66.26
2018-03-21T01:49:39.671Z,66.26
2018-03-21T01:50:05.832Z,66.26
2018-03-21T01:50:31.968Z,66.35
2018-03-21T01:50:58.097Z,66.64
2018-03-21T01:51:24.232Z,66.54
2018-03-21T01:51:50.362Z,66.64
2018-03-21T01:52:16.526Z,66.74
2018-03-21T01:52:42.656Z,67.21
2018-03-21T01:53:08.800Z,67.02
2018-03-21T01:53:34.938Z,67.3
2018-03-21T01:54:01.076Z,67.21
2018-03-21T01:54:27.234Z,66.74
2018-03-21T01:54:53.399Z,66.64
2018-03-21T01:55:19.530Z,66.93
2018-03-21T01:55:45.671Z,66.64
2018-03-21T01:56:11.802Z,67.02
2018-03-21T01:56:37.938Z,66.74
2018-03-21T01:57:04.069Z,66.45
2018-03-21T01:57:30.205Z,66.64
2018-03-21T01:57:56.373Z,66.26
2018-03-21T01:58:22.506Z,66.26
2018-03-21T01:58:48.634Z,66.16
2018-03-21T01:59:14.766Z,66.35
2018-03-21T01:59:40.898Z,66.83
2018-03-21T02:00:07.056Z,66.74
2018-03-21T02:00:33.190Z,66.64
2018-03-21T02:00:59.320Z,67.21
2018-03-21T02:01:25.485Z,67.4
2018-03-21T02:01:51.619Z,67.3
2018-03-21T02:02:17.776Z,67.49
2018-03-21T02:02:43.912Z,67.02
2018-03-21T02:03:10.097Z,67.21
2018-03-21T02:03:36.258Z,67.3
2018-03-21T02:04:02.394Z,66.93
2018-03-21T02:04:28.532Z,66.83
2018-03-21T02:04:54.667Z,66.74
2018-03-21T02:05:20.798Z,66.74
2018-03-21T02:05:46.934Z,66.93
2018-03-21T02:06:13.068Z,66.83
2018-03-21T02:06:39.198Z,66.83
2018-03-21T02:07:05.335Z,66.64
2018-03-21T02:07:31.488Z,66.83
2018-03-21T02:07:57.628Z,66.83
2018-03-21T02:08:23.791Z,67.4
2018-03-21T02:08:49.929Z,67.58
2018-03-21T02:09:16.057Z,67.68
2018-03-21T02:09:42.188Z,68.06
2018-03-21T02:10:08.320Z,67.87
2018-03-21T02:10:34.478Z,68.06
2018-03-21T02:11:00.613Z,67.96
2018-03-21T02:11:26.749Z,68.06
2018-03-21T02:11:52.921Z,67.87
2018-03-21T02:12:19.054Z,67.87
2018-03-21T02:12:45.189Z,67.68
2018-03-21T02:13:11.317Z,67.68
2018-03-21T02:13:37.447Z,67.68
2018-03-21T02:14:03.591Z,67.49
2018-03-21T02:14:29.717Z,68.06
2018-03-21T02:14:55.857Z,67.96
2018-03-21T02:15:21.988Z,68.25
2018-03-21T02:15:48.121Z,68.35
2018-03-21T02:16:14.252Z,68.44
2018-03-21T02:16:40.386Z,67.96
2018-03-21T02:17:06.524Z,68.25
2018-03-21T02:17:32.663Z,68.06
2018-03-21T02:17:58.796Z,68.15
2018-03-21T02:18:24.933Z,68.15
2018-03-21T02:18:51.062Z,67.87
2018-03-21T02:19:17.199Z,68.63
2018-03-21T02:19:43.329Z,68.15
2018-03-21T02:20:09.467Z,68.44
2018-03-21T02:20:35.608Z,69.01
2018-03-21T02:21:01.741Z,68.73
2018-03-21T02:21:27.896Z,68.73
2018-03-21T02:21:54.054Z,68.82
2018-03-21T02:22:20.189Z,68.91
2018-03-21T02:22:46.342Z,68.91
2018-03-21T02:23:12.495Z,68.82
2018-03-21T02:23:38.626Z,68.73
2018-03-21T02:24:04.769Z,69.01
2018-03-21T02:24:30.905Z,68.82
2018-03-21T02:24:57.041Z,69.01
2018-03-21T02:25:23.175Z,68.54
2018-03-21T02:25:49.318Z,69.2
2018-03-21T02:26:15.452Z,68.91
2018-03-21T02:26:41.584Z,69.1
2018-03-21T02:27:07.726Z,69.2
2018-03-21T02:27:33.861Z,69.29
2018-03-21T02:27:59.995Z,69.07
2018-03-21T02:28:26.134Z,69.01
2018-03-21T02:28:52.267Z,69.2
2018-03-21T02:29:18.421Z,69.07
2018-03-21T02:29:44.558Z,69.17
2018-03-21T02:30:10.688Z,69.96
2018-03-21T02:30:36.835Z,69.86
2018-03-21T02:31:03.015Z,69.77
2018-03-21T02:31:29.151Z,68.63
2018-03-21T02:31:55.285Z,69.1
2018-03-21T02:32:21.470Z,68.98
2018-03-21T02:32:47.613Z,69.17
2018-03-21T02:33:13.743Z,68.88
2018-03-21T02:33:39.892Z,68.91
2018-03-21T02:34:06.056Z,69.29
2018-03-21T02:34:32.194Z,69.26
2018-03-21T02:34:58.356Z,69.26
2018-03-21T02:35:24.500Z,69.29
2018-03-21T02:35:50.623Z,69.29
2018-03-21T02:36:16.759Z,69.77
2018-03-21T02:36:42.897Z,69.2
2018-03-21T02:37:09.029Z,68.91
2018-03-21T02:37:35.166Z,69.1
2018-03-21T02:38:01.306Z,69.2
2018-03-21T02:38:27.440Z,68.69
2018-03-21T02:38:53.578Z,68.59
2018-03-21T02:39:19.712Z,68.5
2018-03-21T02:39:45.851Z,69.07
2018-03-21T02:40:12.004Z,68.98
2018-03-21T02:40:38.121Z,69.26
2018-03-21T02:41:04.254Z,69.82
2018-03-21T02:41:30.387Z,70.01
2018-03-21T02:41:56.518Z,69.92
2018-03-21T02:42:22.655Z,69.64
2018-03-21T02:42:48.789Z,69.45
2018-03-21T02:43:14.929Z,69.82
2018-03-21T02:43:41.061Z,69.73
2018-03-21T02:44:07.201Z,69.17
2018-03-21T02:44:33.369Z,69.73
2018-03-21T02:44:59.494Z,69.73
2018-03-21T02:45:25.630Z,69.45
2018-03-21T02:45:51.767Z,69.92
2018-03-21T02:46:17.905Z,69.82
2018-03-21T02:46:44.061Z,69.54
2018-03-21T02:47:10.196Z,69.82
2018-03-21T02:47:36.354Z,69.45
2018-03-21T02:48:02.487Z,69.64
2018-03-21T02:48:28.620Z,69.73
2018-03-21T02:48:54.777Z,69.54
2018-03-21T02:49:20.909Z,69.73
2018-03-21T02:49:47.050Z,69.64
2018-03-21T02:50:13.191Z,69.92
2018-03-21T02:50:39.347Z,69.45
2018-03-21T02:51:05.472Z,69.54
2018-03-21T02:51:31.615Z,69.92
2018-03-21T02:51:57.747Z,69.82
2018-03-21T02:52:23.881Z,69.64
2018-03-21T02:52:50.018Z,69.45
2018-03-21T02:53:16.153Z,69.54
2018-03-21T02:53:42.292Z,69.73
2018-03-21T02:54:08.424Z,69.82
2018-03-21T02:54:34.561Z,68.98
2018-03-21T02:55:00.719Z,68.98
2018-03-21T02:55:26.856Z,69.54
2018-03-21T02:55:52.992Z,69.73
2018-03-21T02:56:19.130Z,69.54
2018-03-21T02:56:45.278Z,69.82
2018-03-21T02:57:11.416Z,69.82
2018-03-21T02:57:37.549Z,69.73
2018-03-21T02:58:03.683Z,69.17
2018-03-21T02:58:29.816Z,68.88
2018-03-21T02:58:55.952Z,69.17
2018-03-21T02:59:22.091Z,68.98
2018-03-21T02:59:48.222Z,69.07
2018-03-21T03:00:14.355Z,68.88
2018-03-21T03:00:40.496Z,69.54
2018-03-21T03:01:06.652Z,69.17
2018-03-21T03:01:32.781Z,68.98
2018-03-21T03:01:58.922Z,69.17
2018-03-21T03:02:25.058Z,69.17
2018-03-21T03:02:51.219Z,68.98
2018-03-21T03:03:17.354Z,68.88
2018-03-21T03:03:43.492Z,69.07
2018-03-21T03:04:09.621Z,68.88
2018-03-21T03:04:35.777Z,68.98
2018-03-21T03:05:01.915Z,69.07
2018-03-21T03:05:28.045Z,69.17
2018-03-21T03:05:54.187Z,69.07
2018-03-21T03:06:20.326Z,69.17
2018-03-21T03:06:46.465Z,69.07
2018-03-21T03:07:12.613Z,69.07
2018-03-21T03:07:38.765Z,68.88
2018-03-21T03:08:04.907Z,68.79
2018-03-21T03:08:31.062Z,69.17
2018-03-21T03:08:57.195Z,69.17
2018-03-21T03:09:23.335Z,68.88
2018-03-21T03:09:49.502Z,69.17
2018-03-21T03:10:15.639Z,69.26
2018-03-21T03:10:41.770Z,69.64
2018-03-21T03:11:07.914Z,69.73
2018-03-21T03:11:34.064Z,69.54
2018-03-21T03:12:00.195Z,69.54
2018-03-21T03:12:26.333Z,69.82
2018-03-21T03:12:52.473Z,70.3
2018-03-21T03:13:18.607Z,70.01
2018-03-21T03:13:44.744Z,70.11
2018-03-21T03:14:10.904Z,70.3
2018-03-21T03:14:37.035Z,70.01
2018-03-21T03:15:03.171Z,69.64
2018-03-21T03:15:29.311Z,70.2
2018-03-21T03:15:55.445Z,70.2
2018-03-21T03:16:21.584Z,70.39
2018-03-21T03:16:47.716Z,70.39
2018-03-21T03:17:13.862Z,70.49
2018-03-21T03:17:40.017Z,70.11
2018-03-21T03:18:06.155Z,70.3
2018-03-21T03:18:32.288Z,70.49
2018-03-21T03:18:58.419Z,70.01
2018-03-21T03:19:24.554Z,70.39
2018-03-21T03:19:50.685Z,70.39
2018-03-21T03:20:16.818Z,70.39
2018-03-21T03:20:42.954Z,70.68
2018-03-21T03:21:09.089Z,70.87
2018-03-21T03:21:35.221Z,70.87
2018-03-21T03:22:01.385Z,70.97
2018-03-21T03:22:27.530Z,71.06
2018-03-21T03:22:53.658Z,70.97
2018-03-21T03:23:19.798Z,70.78
2018-03-21T03:23:45.928Z,70.87
2018-03-21T03:24:12.059Z,70.87
2018-03-21T03:24:38.198Z,70.87
2018-03-21T03:25:04.336Z,70.78
2018-03-21T03:25:30.472Z,70.87
2018-03-21T03:25:56.639Z,70.97
2018-03-21T03:26:22.770Z,70.78
2018-03-21T03:26:48.909Z,70.78
2018-03-21T03:27:15.040Z,70.68
2018-03-21T03:27:41.169Z,71.15
2018-03-21T03:28:07.306Z,71.34
2018-03-21T03:28:33.448Z,71.44
2018-03-21T03:28:59.577Z,71.34
2018-03-21T03:29:25.732Z,71.53
2018-03-21T03:29:51.879Z,71.25
2018-03-21T03:30:18.026Z,70.97
2018-03-21T03:30:44.154Z,70.78
2018-03-21T03:31:10.311Z,71.15
2018-03-21T03:31:36.442Z,70.78
2018-03-21T03:32:02.576Z,70.87
2018-03-21T03:32:28.712Z,70.87
2018-03-21T03:32:54.844Z,71.25
2018-03-21T03:33:20.980Z,71.06
2018-03-21T03:33:47.119Z,71.44
2018-03-21T03:34:13.250Z,71.25
2018-03-21T03:34:39.413Z,70.68
2018-03-21T03:35:05.550Z,71.06
2018-03-21T03:35:31.685Z,71.44
2018-03-21T03:35:57.839Z,71.44
2018-03-21T03:36:23.973Z,70.58
2018-03-21T03:36:50.116Z,70.78
2018-03-21T03:37:16.239Z,70.87
2018-03-21T03:37:42.371Z,71.25
2018-03-21T03:38:08.512Z,70.68
2018-03-21T03:38:34.678Z,70.78
2018-03-21T03:39:00.781Z,71.15
2018-03-21T03:39:26.915Z,70.87
2018-03-21T03:39:53.065Z,70.97
2018-03-21T03:40:19.204Z,71.06
2018-03-21T03:40:45.337Z,71.34
2018-03-21T03:41:11.474Z,71.44
2018-03-21T03:41:37.604Z,71.25
2018-03-21T03:42:03.762Z,71.25
2018-03-21T03:42:29.896Z,70.97
2018-03-21T03:42:56.036Z,71.15
2018-03-21T03:43:22.168Z,71.25
2018-03-21T03:43:48.308Z,71.81
2018-03-21T03:44:14.443Z,71.62
2018-03-21T03:44:40.578Z,71.62
2018-03-21T03:45:06.709Z,71.44
2018-03-21T03:45:32.847Z,71.62
2018-03-21T03:45:58.978Z,71.44
2018-03-21T03:46:25.113Z,71.62
2018-03-21T03:46:51.245Z,71.81
2018-03-21T03:47:17.402Z,71.91
2018-03-21T03:47:43.534Z,71.72
2018-03-21T03:48:09.670Z,71.53
2018-03-21T03:48:35.806Z,71.62
2018-03-21T03:49:01.943Z,71.62
2018-03-21T03:49:28.085Z,71.72
2018-03-21T03:49:54.217Z,71.72
2018-03-21T03:50:20.346Z,71.72
2018-03-21T03:50:46.493Z,71.72
2018-03-21T03:51:12.617Z,71.91
2018-03-21T03:51:38.757Z,72.1
2018-03-21T03:52:04.919Z,72.1
2018-03-21T03:52:31.053Z,72.19
2018-03-21T03:52:57.196Z,71.91
2018-03-21T03:53:23.332Z,72.29
2018-03-21T03:53:49.467Z,72.96
2018-03-21T03:54:15.598Z,73.05
2018-03-21T03:54:41.731Z,72.86
2018-03-21T03:55:07.866Z,73.05
2018-03-21T03:55:34.002Z,72.86
2018-03-21T03:56:00.138Z,72.96
2018-03-21T03:56:26.273Z,72.96
2018-03-21T03:56:52.405Z,72.48
2018-03-21T03:57:18.534Z,72.77
2018-03-21T03:57:44.683Z,72.77
2018-03-21T03:58:10.831Z,72.86
2018-03-21T03:58:36.964Z,72.77
2018-03-21T03:59:03.102Z,72.67
2018-03-21T03:59:29.250Z,72.57
2018-03-21T03:59:55.368Z,72.96
2018-03-21T04:00:21.503Z,73.14
2018-03-21T04:00:47.635Z,73.33
2018-03-21T04:01:13.770Z,73.71
2018-03-21T04:01:39.907Z,73.24
2018-03-21T04:02:06.049Z,73.71
2018-03-21T04:02:32.177Z,73.52
2018-03-21T04:02:58.331Z,73.71
2018-03-21T04:03:24.489Z,74.09
2018-03-21T04:03:50.621Z,74.28
2018-03-21T04:04:16.767Z,74.28
2018-03-21T04:04:42.888Z,73.9
2018-03-21T04:05:09.020Z,73.8
2018-03-21T04:05:35.160Z,74.37
2018-03-21T04:06:01.290Z,74.56
2018-03-21T04:06:27.427Z,74.37
2018-03-21T04:06:53.562Z,74.28
2018-03-21T04:07:19.698Z,74.37
2018-03-21T04:07:45.840Z,74.28
2018-03-21T04:08:11.979Z,74.56
2018-03-21T04:08:38.110Z,74.37
2018-03-21T04:09:04.246Z,74.56
2018-03-21T04:09:30.378Z,74.47
2018-03-21T04:09:56.518Z,74.18
2018-03-21T04:10:22.701Z,74.18
2018-03-21T04:10:48.834Z,74.37
2018-03-21T04:11:14.969Z,74.47
2018-03-21T04:11:41.110Z,74.56
2018-03-21T04:12:07.268Z,74.66
2018-03-21T04:12:33.400Z,74.56
2018-03-21T04:12:59.536Z,75.13
2018-03-21T04:13:25.677Z,74.95
2018-03-21T04:13:51.808Z,75.04
2018-03-21T04:14:17.945Z,75.6
2018-03-21T04:14:44.101Z,75.13
2018-03-21T04:15:10.232Z,75.13
2018-03-21T04:15:36.373Z,74.95
2018-03-21T04:16:02.512Z,74.95
2018-03-21T04:16:28.676Z,74.95
2018-03-21T04:16:54.808Z,75.04
2018-03-21T04:17:20.942Z,75.23
2018-03-21T04:17:47.083Z,75.23
2018-03-21T04:18:13.222Z,75.7
2018-03-21T04:18:39.350Z,75.23
2018-03-21T04:19:05.482Z,75.42
2018-03-21T04:19:31.617Z,75.13
2018-03-21T04:19:57.746Z,75.7
2018-03-21T04:20:23.893Z,75.13
2018-03-21T04:20:50.056Z,75.04
2018-03-21T04:21:16.190Z,75.23
2018-03-21T04:21:42.318Z,75.23
2018-03-21T04:22:08.450Z,75.42
2018-03-21T04:22:34.587Z,75.42
2018-03-21T04:23:00.714Z,75.6
2018-03-21T04:23:26.874Z,75.51
2018-03-21T04:23:53.007Z,75.98
2018-03-21T04:24:19.137Z,75.7
2018-03-21T04:24:45.267Z,75.7
2018-03-21T04:25:11.414Z,75.51
2018-03-21T04:25:37.540Z,75.51
2018-03-21T04:26:03.681Z,75.98
2018-03-21T04:26:29.810Z,75.6
2018-03-21T04:26:55.969Z,75.79
2018-03-21T04:27:22.108Z,75.51
2018-03-21T04:27:48.262Z,75.7
2018-03-21T04:28:14.396Z,75.51
2018-03-21T04:28:40.533Z,75.98
2018-03-21T04:29:06.694Z,76.36
2018-03-21T04:29:32.838Z,75.98
2018-03-21T04:29:58.959Z,75.32
2018-03-21T04:30:25.096Z,75.89
2018-03-21T04:30:51.229Z,75.7
2018-03-21T04:31:17.363Z,75.89
2018-03-21T04:31:43.496Z,75.42
2018-03-21T04:32:09.631Z,75.79
2018-03-21T04:32:35.772Z,75.7
2018-03-21T04:33:01.912Z,75.6
2018-03-21T04:33:28.043Z,76.08
2018-03-21T04:33:54.183Z,75.89
2018-03-21T04:34:20.315Z,75.6
2018-03-21T04:34:46.456Z,76.36
2018-03-21T04:35:12.606Z,76.36
2018-03-21T04:35:38.738Z,76.27
2018-03-21T04:36:04.905Z,76.65
2018-03-21T04:36:31.064Z,76.84
2018-03-21T04:36:57.198Z,76.74
2018-03-21T04:37:23.339Z,76.74
2018-03-21T04:37:49.475Z,76.93
2018-03-21T04:38:15.607Z,76.84
2018-03-21T04:38:41.740Z,77.12
2018-03-21T04:39:07.881Z,76.84
2018-03-21T04:39:34.007Z,77.22
2018-03-21T04:40:00.143Z,77.12
2018-03-21T04:40:26.276Z,77.22
2018-03-21T04:40:52.405Z,77.22
2018-03-21T04:41:18.576Z,77.4
2018-03-21T04:41:44.706Z,77.4
2018-03-21T04:42:10.842Z,77.59
2018-03-21T04:42:36.980Z,77.59
2018-03-21T04:43:03.119Z,77.4
2018-03-21T04:43:29.249Z,77.59
2018-03-21T04:43:55.380Z,77.22
2018-03-21T04:44:21.518Z,76.84
2018-03-21T04:44:47.676Z,77.03
2018-03-21T04:45:13.808Z,76.93
2018-03-21T04:45:39.942Z,76.84
2018-03-21T04:46:06.099Z,77.03
2018-03-21T04:46:32.239Z,76.99
2018-03-21T04:46:58.377Z,77.46
2018-03-21T04:47:24.511Z,77.37
2018-03-21T04:47:50.646Z,77.27
2018-03-21T04:48:16.784Z,77.56
2018-03-21T04:48:42.914Z,77.65
2018-03-21T04:49:09.105Z,77.56
2018-03-21T04:49:35.226Z,77.56
2018-03-21T04:50:01.368Z,77.56
2018-03-21T04:50:27.504Z,77.84
2018-03-21T04:50:53.692Z,77.65
2018-03-21T04:51:19.821Z,78.22
2018-03-21T04:51:45.959Z,78.41
2018-03-21T04:52:12.098Z,77.75
2018-03-21T04:52:38.238Z,77.56
2018-03-21T04:53:04.364Z,77.84
2018-03-21T04:53:30.503Z,77.46
2018-03-21T04:53:56.635Z,77.27
2018-03-21T04:54:22.773Z,77.37
2018-03-21T04:54:48.900Z,77.18
2018-03-21T04:55:15.034Z,77.46
2018-03-21T04:55:41.193Z,77.94
2018-03-21T04:56:07.328Z,77.65
2018-03-21T04:56:33.461Z,77.94
2018-03-21T04:56:59.596Z,77.75
2018-03-21T04:57:25.728Z,77.46
2018-03-21T04:57:51.870Z,77.37
2018-03-21T04:58:18.015Z,77.46
2018-03-21T04:58:44.140Z,77.37
2018-03-21T04:59:10.298Z,77.94
2018-03-21T04:59:36.467Z,77.94
2018-03-21T05:00:02.597Z,77.65
2018-03-21T05:00:28.733Z,77.75
2018-03-21T05:00:54.868Z,77.84
2018-03-21T05:01:21.009Z,77.84
2018-03-21T05:01:47.139Z,77.84
2018-03-21T05:02:13.284Z,77.56
2018-03-21T05:02:39.418Z,77.56
2018-03-21T05:03:05.556Z,77.18
2018-03-21T05:03:31.684Z,77.37
2018-03-21T05:03:57.821Z,77.37
2018-03-21T05:04:23.949Z,77.27
2018-03-21T05:04:50.089Z,77.37
2018-03-21T05:05:16.227Z,77.37
2018-03-21T05:05:42.360Z,77.37
2018-03-21T05:06:08.523Z,77.27
2018-03-21T05:06:34.654Z,77.56
2018-03-21T05:07:00.784Z,77.75
2018-03-21T05:07:26.927Z,77.75
2018-03-21T05:07:53.059Z,78.13
2018-03-21T05:08:19.264Z,78.41
2018-03-21T05:08:45.347Z,78.5
2018-03-21T05:09:11.486Z,78.22
2018-03-21T05:09:37.622Z,78.69
2018-03-21T05:10:03.758Z,78.79
2018-03-21T05:10:29.888Z,78.41
2018-03-21T05:10:56.052Z,78.31
2018-03-21T05:11:22.203Z,78.41
2018-03-21T05:11:48.343Z,78.88
2018-03-21T05:12:14.477Z,78.59
2018-03-21T05:12:40.640Z,78.5
2018-03-21T05:13:06.798Z,78.88
2018-03-21T05:13:32.929Z,78.79
2018-03-21T05:13:59.066Z,79.17
2018-03-21T05:14:25.199Z,78.88
2018-03-21T05:14:51.342Z,79.26
2018-03-21T05:15:17.471Z,78.88
2018-03-21T05:15:43.611Z,78.59
2018-03-21T05:16:09.743Z,78.88
2018-03-21T05:16:35.880Z,78.98
2018-03-21T05:17:02.038Z,78.98
2018-03-21T05:17:28.181Z,78.98
2018-03-21T05:17:54.316Z,78.69
2018-03-21T05:18:20.456Z,78.79
2018-03-21T05:18:46.586Z,78.98
2018-03-21T05:19:12.730Z,78.69
2018-03-21T05:19:38.862Z,78.98
2018-03-21T05:20:05.015Z,78.88
2018-03-21T05:20:31.149Z,78.79
2018-03-21T05:20:57.288Z,78.98
2018-03-21T05:21:23.421Z,78.79
2018-03-21T05:21:49.552Z,78.88
2018-03-21T05:22:15.709Z,78.69
2018-03-21T05:22:41.848Z,78.59
2018-03-21T05:23:08.002Z,78.59
2018-03-21T05:23:34.140Z,79.17
2018-03-21T05:24:00.275Z,79.07
2018-03-21T05:24:26.411Z,78.79
2018-03-21T05:24:52.547Z,78.79
2018-03-21T05:25:18.679Z,78.79
2018-03-21T05:25:44.819Z,78.88
2018-03-21T05:26:10.945Z,79.17
2018-03-21T05:26:37.141Z,79.26
2018-03-21T05:27:03.228Z,78.98
2018-03-21T05:27:29.360Z,78.88
2018-03-21T05:27:55.489Z,78.46
2018-03-21T05:28:21.629Z,78.75
2018-03-21T05:28:47.765Z,78.94
2018-03-21T05:29:13.893Z,78.46
2018-03-21T05:29:40.029Z,79.32
2018-03-21T05:30:06.168Z,79.41
2018-03-21T05:30:32.303Z,79.22
2018-03-21T05:30:58.458Z,79.79
2018-03-21T05:31:24.617Z,79.79
2018-03-21T05:31:50.751Z,80.36
2018-03-21T05:32:16.891Z,79.88
2018-03-21T05:32:43.019Z,79.98
2018-03-21T05:33:09.161Z,79.98
2018-03-21T05:33:35.299Z,79.98
2018-03-21T05:34:01.456Z,79.79
2018-03-21T05:34:27.634Z,79.79
2018-03-21T05:34:53.773Z,79.79
2018-03-21T05:35:19.910Z,79.79
2018-03-21T05:35:46.047Z,79.69
2018-03-21T05:36:12.183Z,79.79
2018-03-21T05:36:38.320Z,80.07
2018-03-21T05:37:04.484Z,79.88
2018-03-21T05:37:30.622Z,79.69